Time;durP1;ratioP1;P1;durP2;ratioP2;P2;SDS_P1;SDS_P2;PMS_P1;PMS_P2;Temp;Humidity;BMP_temperature;BMP_pressure;BME280_temperature;BME280_humidity;BME280_pressure;Samples;Min_cycle;Max_cycle;Signal;HPM_P1;HPM_P2
2022/09/11 00:01:46;;;;;;;27.20;22.42;;;13.50;99.90;;;;;;5029673;28;20377;-72
2022/09/11 00:04:12;;;;;;;24.17;21.13;;;13.50;99.90;;;;;;5011754;28;20037;-71
2022/09/11 00:06:37;;;;;;;24.58;21.35;;;13.50;99.90;;;;;;5027957;28;20475;-70
2022/09/11 00:09:05;;;;;;;25.17;21.10;;;13.50;99.90;;;;;;5058686;28;20049;-71
2022/09/11 00:11:34;;;;;;;29.05;21.98;;;13.50;99.90;;;;;;5044559;28;20395;-71
2022/09/11 00:14:00;;;;;;;23.23;20.13;;;13.50;99.90;;;;;;5057861;28;20511;-71
2022/09/11 00:16:30;;;;;;;22.92;20.40;;;13.40;99.90;;;;;;5056757;28;20032;-71
2022/09/11 00:18:58;;;;;;;25.33;21.75;;;13.40;99.90;;;;;;5037046;28;20037;-71
2022/09/11 00:21:25;;;;;;;23.33;20.75;;;13.40;99.90;;;;;;5029149;28;20041;-71
2022/09/11 00:23:52;;;;;;;22.27;19.88;;;13.40;99.90;;;;;;5054199;28;20037;-72
2022/09/11 00:26:18;;;;;;;24.83;21.00;;;13.40;99.90;;;;;;5056878;28;20052;-71
2022/09/11 00:28:47;;;;;;;25.75;22.48;;;13.30;99.90;;;;;;5056793;28;20416;-72
2022/09/11 00:31:19;;;;;;;22.73;20.10;;;13.30;99.90;;;;;;5056521;28;20045;-71
2022/09/11 00:33:45;;;;;;;21.95;19.55;;;13.20;99.90;;;;;;5057819;28;20063;-71
2022/09/11 00:36:14;;;;;;;22.40;20.05;;;13.20;99.90;;;;;;5040395;28;20037;-72
2022/09/11 00:38:41;;;;;;;23.17;20.05;;;13.20;99.90;;;;;;5024439;28;20048;-72
2022/09/11 00:41:16;;;;;;;22.17;19.73;;;13.20;99.90;;;;;;5027562;28;20501;-72
2022/09/11 00:43:56;;;;;;;;;;;13.20;99.90;;;;;;5057014;28;20056;-72
2022/09/11 00:46:42;;;;;;;20.83;18.15;;;13.10;99.90;;;;;;5022422;28;19932;-72
2022/09/11 00:49:32;;;;;;;35.83;21.50;;;13.10;99.90;;;;;;5021343;28;20044;-72
2022/09/11 00:52:12;;;;;;;24.58;20.80;;;13.10;99.90;;;;;;5061525;28;20037;-71
2022/09/11 00:54:56;;;;;;;23.27;20.80;;;13.10;99.90;;;;;;5058660;28;20041;-71
2022/09/11 00:57:27;;;;;;;27.52;22.80;;;13.00;99.90;;;;;;5057810;28;20060;-71
2022/09/11 00:59:57;;;;;;;28.40;21.30;;;13.00;99.90;;;;;;5027746;28;20093;-71
2022/09/11 01:02:25;;;;;;;22.33;19.48;;;13.00;99.90;;;;;;5022954;28;20049;-71
2022/09/11 01:04:52;;;;;;;24.67;20.50;;;13.00;99.90;;;;;;5036086;28;20112;-71
2022/09/11 01:07:19;;;;;;;25.23;21.15;;;12.90;99.90;;;;;;5026182;28;20030;-71
2022/09/11 01:09:46;;;;;;;43.05;23.45;;;12.90;99.90;;;;;;5066931;28;20084;-72
2022/09/11 01:12:45;;;;;;;28.05;22.33;;;13.00;99.90;;;;;;5042128;28;20054;-71
2022/09/11 01:15:35;;;;;;;26.67;22.08;;;13.00;99.90;;;;;;5056332;28;20382;-71
2022/09/11 01:18:14;;;;;;;24.92;20.38;;;13.00;99.90;;;;;;5039600;28;20041;-70
2022/09/11 01:20:52;;;;;;;26.60;21.40;;;12.90;99.90;;;;;;5057374;28;20037;-71
2022/09/11 01:23:40;;;;;;;23.35;20.67;;;12.90;99.90;;;;;;5041393;28;20040;-71
2022/09/11 01:26:15;;;;;;;30.00;20.67;;;12.90;99.90;;;;;;5053201;28;20042;-71
2022/09/11 01:28:49;;;;;;;24.02;21.40;;;13.00;99.90;;;;;;5059458;28;20380;-71
2022/09/11 01:31:21;;;;;;;34.15;21.73;;;13.00;99.90;;;;;;5021584;28;20040;-71
2022/09/11 01:33:58;;;;;;;31.13;21.63;;;13.00;99.90;;;;;;5020569;28;20049;-71
2022/09/11 01:36:33;;;;;;;127.18;23.90;;;13.00;99.90;;;;;;5019780;28;20037;-71
2022/09/11 01:39:02;;;;;;;27.20;22.02;;;13.00;99.90;;;;;;5041515;28;20048;-71
2022/09/11 01:41:39;;;;;;;41.97;23.55;;;13.00;99.90;;;;;;5057600;28;20456;-71
2022/09/11 01:44:20;;;;;;;31.75;23.52;;;13.00;99.90;;;;;;5039898;28;20434;-71
2022/09/11 01:46:49;;;;;;;46.65;22.92;;;13.00;99.90;;;;;;5021945;28;20095;-71
2022/09/11 01:49:31;;;;;;;29.52;23.25;;;13.00;99.90;;;;;;5024099;28;20213;-71
2022/09/11 01:52:01;;;;;;;27.73;21.13;;;13.00;99.90;;;;;;5051576;28;20415;-71
2022/09/11 01:54:32;;;;;;;39.25;20.95;;;13.00;99.90;;;;;;5053573;28;20108;-71
2022/09/11 01:57:05;;;;;;;23.20;19.52;;;12.80;99.90;;;;;;5048642;28;20042;-71
2022/09/11 01:59:39;;;;;;;20.30;18.13;;;12.90;99.90;;;;;;5049884;28;20045;-71
2022/09/11 02:02:08;;;;;;;21.02;18.65;;;12.90;99.90;;;;;;5050788;28;20044;-70
2022/09/11 02:05:08;;;;;;;33.17;21.23;;;12.80;99.90;;;;;;5057328;28;20063;-71
2022/09/11 02:07:40;;;;;;;108.18;24.95;;;12.80;99.90;;;;;;5054418;28;20510;-70
2022/09/11 02:10:10;;;;;;;18.90;16.90;;;12.80;99.90;;;;;;5053352;28;20037;-71
2022/09/11 02:12:50;;;;;;;20.95;17.27;;;12.80;99.90;;;;;;5024259;28;20048;-71
2022/09/11 02:15:16;;;;;;;42.20;18.77;;;12.70;99.90;;;;;;5018869;28;20047;-72
2022/09/11 02:18:00;;;;;;;22.10;17.30;;;12.70;99.90;;;;;;5023702;28;20036;-71
2022/09/11 02:20:27;;;;;;;26.38;20.45;;;12.70;99.90;;;;;;5047922;28;20057;-71
2022/09/11 02:22:53;;;;;;;21.75;19.38;;;12.70;99.90;;;;;;5050690;28;20037;-71
2022/09/11 02:25:19;;;;;;;35.10;21.83;;;12.70;99.90;;;;;;5019838;28;20047;-72
2022/09/11 02:27:44;;;;;;;31.17;21.60;;;12.70;99.90;;;;;;5057763;28;20130;-71
2022/09/11 02:30:11;;;;;;;26.55;20.65;;;12.70;99.90;;;;;;5053987;28;20151;-71
2022/09/11 02:32:40;;;;;;;23.35;19.55;;;12.70;99.90;;;;;;5058351;28;20099;-70
2022/09/11 02:35:07;;;;;;;35.78;19.17;;;12.70;99.90;;;;;;5023213;28;20075;-71
2022/09/11 02:37:51;;;;;;;72.50;19.67;;;12.60;99.90;;;;;;5005608;28;20049;-70
2022/09/11 02:40:38;;;;;;;30.35;17.25;;;12.60;99.90;;;;;;5052301;28;20508;-71
2022/09/11 02:43:29;;;;;;;25.88;16.27;;;12.60;99.90;;;;;;5039038;28;20041;-71
2022/09/11 02:46:37;;;;;;;17.55;15.80;;;12.60;99.90;;;;;;5057182;28;20048;-71
2022/09/11 02:49:15;;;;;;;17.70;15.98;;;12.50;99.90;;;;;;5050770;28;20041;-72
2022/09/11 02:51:58;;;;;;;18.35;16.48;;;12.50;99.90;;;;;;5022328;28;20036;-72
2022/09/11 02:54:32;;;;;;;16.38;14.88;;;12.50;99.90;;;;;;5056034;28;20051;-72
2022/09/11 02:57:24;;;;;;;15.52;14.02;;;12.40;99.90;;;;;;5019231;28;20037;-72
2022/09/11 02:59:55;;;;;;;15.20;13.70;;;12.40;99.90;;;;;;5055867;28;20115;-71
2022/09/11 03:02:23;;;;;;;14.70;13.32;;;12.30;99.90;;;;;;5032552;28;20485;-71
2022/09/11 03:04:49;;;;;;;15.43;14.10;;;12.30;99.90;;;;;;5020806;28;20152;-71
2022/09/11 03:07:15;;;;;;;14.02;12.73;;;12.30;99.90;;;;;;5049248;28;20041;-71
2022/09/11 03:09:42;;;;;;;15.43;13.98;;;12.30;99.90;;;;;;5025346;28;20036;-71
2022/09/11 03:12:07;;;;;;;20.08;14.98;;;12.20;99.90;;;;;;5051614;28;20037;-72
2022/09/11 03:14:33;;;;;;;16.08;14.45;;;12.30;99.90;;;;;;5055749;28;20495;-72
2022/09/11 03:16:59;;;;;;;16.00;14.23;;;12.30;99.90;;;;;;5054272;28;20072;-72
2022/09/11 03:19:24;;;;;;;16.83;15.13;;;12.20;99.90;;;;;;5055713;28;20040;-71
2022/09/11 03:21:50;;;;;;;18.42;15.07;;;12.20;99.90;;;;;;5055833;28;20449;-72
2022/09/11 03:24:16;;;;;;;24.58;15.10;;;12.20;99.90;;;;;;5053908;28;20482;-72
2022/09/11 03:26:41;;;;;;;46.50;15.02;;;12.30;99.90;;;;;;5054063;28;20060;-72
2022/09/11 03:29:07;;;;;;;60.88;15.93;;;12.30;99.90;;;;;;5055954;28;20037;-72
2022/09/11 03:31:33;;;;;;;32.75;15.98;;;12.30;99.90;;;;;;5019212;28;20053;-72
2022/09/11 03:33:59;;;;;;;17.58;14.40;;;12.40;99.90;;;;;;5048432;28;20041;-72
2022/09/11 03:36:25;;;;;;;16.58;14.88;;;12.30;99.90;;;;;;5021047;28;20045;-72
2022/09/11 03:38:51;;;;;;;95.00;22.25;;;12.30;99.90;;;;;;5057208;28;20056;-72
2022/09/11 03:41:17;;;;;;;183.90;28.60;;;12.30;99.90;;;;;;5023444;28;20044;-71
2022/09/11 03:43:43;;;;;;;15.00;13.73;;;12.40;99.90;;;;;;5039544;28;20128;-72
2022/09/11 03:46:09;;;;;;;15.90;14.35;;;12.30;99.90;;;;;;5059042;28;20343;-70
2022/09/11 03:48:35;;;;;;;15.32;13.73;;;12.30;99.90;;;;;;5037827;28;20529;-71
2022/09/11 03:51:01;;;;;;;21.58;16.52;;;12.30;99.90;;;;;;5044292;28;20048;-72
2022/09/11 03:53:27;;;;;;;16.27;14.77;;;12.30;99.90;;;;;;5044279;28;20052;-72
2022/09/11 03:55:53;;;;;;;20.48;17.08;;;12.40;99.90;;;;;;5041737;28;20045;-72
2022/09/11 03:58:19;;;;;;;68.18;21.17;;;12.30;99.90;;;;;;5056461;28;20409;-72
2022/09/11 04:00:46;;;;;;;21.95;17.30;;;12.30;99.90;;;;;;5058174;28;20053;-72
2022/09/11 04:03:14;;;;;;;26.70;18.42;;;12.30;99.90;;;;;;5057136;28;20185;-71
2022/09/11 04:05:43;;;;;;;22.83;18.35;;;12.30;99.90;;;;;;5026388;28;20514;-71
2022/09/11 04:08:12;;;;;;;20.00;18.00;;;12.30;99.90;;;;;;5024826;28;20131;-70
2022/09/11 04:10:37;;;;;;;17.15;15.55;;;12.30;99.90;;;;;;5043350;28;20041;-72
2022/09/11 04:13:04;;;;;;;45.90;19.42;;;12.30;99.90;;;;;;5060563;28;20045;-72
2022/09/11 04:15:31;;;;;;;45.28;19.90;;;12.30;99.90;;;;;;5039161;28;20059;-72
2022/09/11 04:17:57;;;;;;;20.45;18.27;;;12.30;99.90;;;;;;5052237;28;20532;-72
2022/09/11 04:20:23;;;;;;;17.92;16.15;;;12.30;99.90;;;;;;5023467;28;20037;-71
2022/09/11 04:22:49;;;;;;;27.25;16.70;;;12.20;99.90;;;;;;5039341;28;20107;-71
2022/09/11 04:25:15;;;;;;;29.17;16.50;;;12.20;99.90;;;;;;5064278;28;20061;-70
2022/09/11 04:27:40;;;;;;;42.08;16.00;;;12.20;99.90;;;;;;5059796;28;20061;-71
2022/09/11 04:30:07;;;;;;;38.05;15.95;;;12.20;99.90;;;;;;5064785;28;20033;-71
2022/09/11 04:32:33;;;;;;;25.90;14.68;;;12.20;99.90;;;;;;5028205;28;20041;-72
2022/09/11 04:35:00;;;;;;;90.03;15.93;;;12.20;99.90;;;;;;5059490;28;20059;-72
2022/09/11 04:37:27;;;;;;;36.75;14.10;;;12.20;99.90;;;;;;5043446;28;20103;-71
2022/09/11 04:39:53;;;;;;;39.03;13.65;;;12.30;99.90;;;;;;5023712;28;20041;-72
2022/09/11 04:42:19;;;;;;;21.67;13.25;;;12.20;99.90;;;;;;5030328;28;20383;-71
2022/09/11 04:44:45;;;;;;;14.25;12.95;;;12.30;99.90;;;;;;5055029;28;20054;-71
2022/09/11 04:47:11;;;;;;;25.70;12.93;;;12.20;99.90;;;;;;5047152;28;20107;-71
2022/09/11 04:49:37;;;;;;;14.35;13.10;;;12.30;99.90;;;;;;5059570;28;20041;-72
2022/09/11 04:52:04;;;;;;;18.95;14.35;;;12.30;99.90;;;;;;5044986;28;20044;-72
2022/09/11 04:54:34;;;;;;;17.15;13.88;;;12.30;99.90;;;;;;5026987;28;20042;-72
2022/09/11 04:57:03;;;;;;;14.82;13.35;;;12.30;99.90;;;;;;5061597;28;20041;-71
2022/09/11 04:59:28;;;;;;;14.77;13.32;;;12.40;99.90;;;;;;5062190;28;20581;-72
2022/09/11 05:01:54;;;;;;;14.23;12.65;;;12.30;99.90;;;;;;5062813;28;20124;-71
2022/09/11 05:04:20;;;;;;;12.77;11.57;;;12.30;99.90;;;;;;5059633;28;20374;-71
2022/09/11 05:06:49;;;;;;;12.75;11.75;;;12.40;99.90;;;;;;5024605;28;20045;-72
2022/09/11 05:09:16;;;;;;;12.82;11.73;;;12.40;99.90;;;;;;5053377;28;20053;-72
2022/09/11 05:11:41;;;;;;;12.27;11.27;;;12.40;99.90;;;;;;5045257;28;20477;-72
2022/09/11 05:14:07;;;;;;;13.07;11.80;;;12.30;99.90;;;;;;5022626;28;20067;-71
2022/09/11 05:16:34;;;;;;;12.82;11.73;;;12.40;99.90;;;;;;5029615;28;20461;-72
2022/09/11 05:19:02;;;;;;;12.63;11.63;;;12.40;99.90;;;;;;5040469;28;20045;-70
2022/09/11 05:21:30;;;;;;;13.27;12.18;;;12.30;99.90;;;;;;5025959;28;20136;-71
2022/09/11 05:23:59;;;;;;;12.05;11.05;;;12.30;99.90;;;;;;5046175;28;20040;-71
2022/09/11 05:26:28;;;;;;;12.13;11.13;;;12.30;99.90;;;;;;5027551;28;20037;-71
2022/09/11 05:29:00;;;;;;;14.63;13.27;;;12.30;99.90;;;;;;5061180;28;20037;-72
2022/09/11 05:31:27;;;;;;;14.50;13.30;;;12.30;99.90;;;;;;5061291;28;20060;-72
2022/09/11 05:33:58;;;;;;;13.85;12.75;;;12.30;99.90;;;;;;5057503;28;20182;-72
2022/09/11 05:36:24;;;;;;;12.82;11.75;;;12.40;99.90;;;;;;5039820;28;20049;-72
2022/09/11 05:38:49;;;;;;;15.25;13.88;;;12.50;99.90;;;;;;5061448;28;20033;-71
2022/09/11 05:41:16;;;;;;;15.90;14.40;;;12.50;99.90;;;;;;5062717;28;20141;-71
2022/09/11 05:43:42;;;;;;;15.73;14.13;;;12.50;99.90;;;;;;5056781;28;20049;-71
2022/09/11 05:46:11;;;;;;;16.00;14.40;;;12.50;99.90;;;;;;5061530;28;20208;-72
2022/09/11 05:48:37;;;;;;;14.90;13.55;;;12.50;99.90;;;;;;5060714;28;20508;-72
2022/09/11 05:51:06;;;;;;;16.55;14.85;;;12.50;99.90;;;;;;5023041;28;20064;-72
2022/09/11 05:53:32;;;;;;;15.05;13.68;;;12.60;99.90;;;;;;5029503;28;20412;-71
2022/09/11 05:56:05;;;;;;;17.15;15.45;;;12.60;99.90;;;;;;5052189;28;20493;-71
2022/09/11 05:58:31;;;;;;;17.48;15.68;;;12.60;99.90;;;;;;5027126;28;20580;-72
2022/09/11 06:01:12;;;;;;;17.15;15.45;;;12.70;99.90;;;;;;5022251;28;20060;-72
2022/09/11 06:03:38;;;;;;;16.42;14.77;;;12.80;99.90;;;;;;5055856;28;20107;-72
2022/09/11 06:06:06;;;;;;;16.92;15.38;;;12.90;99.90;;;;;;5062017;28;20042;-72
2022/09/11 06:08:33;;;;;;;16.35;14.85;;;13.00;99.90;;;;;;5058356;28;20120;-72
2022/09/11 06:11:00;;;;;;;17.17;15.57;;;13.10;99.90;;;;;;5055416;28;20041;-71
2022/09/11 06:13:32;;;;;;;15.70;14.30;;;13.20;99.90;;;;;;5024156;28;20065;-72
2022/09/11 06:15:58;;;;;;;15.02;13.73;;;13.20;99.90;;;;;;5022512;28;20052;-73
2022/09/11 06:18:25;;;;;;;18.83;13.10;;;13.30;99.90;;;;;;5052917;28;20091;-72
2022/09/11 06:21:02;;;;;;;14.48;13.18;;;13.30;99.90;;;;;;5050148;28;20417;-73
2022/09/11 06:23:28;;;;;;;15.70;14.25;;;13.50;99.90;;;;;;5052465;28;20062;-72
2022/09/11 06:26:01;;;;;;;15.38;13.80;;;13.50;99.90;;;;;;5025373;28;20520;-73
2022/09/11 06:28:27;;;;;;;14.63;13.43;;;13.60;99.90;;;;;;5038703;28;20034;-72
2022/09/11 06:30:53;;;;;;;14.95;13.73;;;13.70;99.90;;;;;;5058889;28;20115;-72
2022/09/11 06:33:19;;;;;;;16.60;14.98;;;13.80;99.90;;;;;;5070219;28;20488;-72
2022/09/11 06:35:58;;;;;;;16.85;15.45;;;13.80;99.90;;;;;;5058637;28;20119;-72
2022/09/11 06:38:25;;;;;;;18.10;16.50;;;13.90;99.90;;;;;;5022531;28;20425;-73
2022/09/11 06:40:52;;;;;;;18.92;17.23;;;14.00;99.90;;;;;;5021947;28;20419;-73
2022/09/11 06:43:18;;;;;;;17.55;15.95;;;14.00;99.90;;;;;;5056350;28;20057;-72
2022/09/11 06:45:46;;;;;;;18.20;16.60;;;14.10;99.90;;;;;;5028351;28;20128;-72
2022/09/11 06:48:11;;;;;;;17.35;15.85;;;14.20;99.90;;;;;;5058623;28;20044;-72
2022/09/11 06:50:39;;;;;;;15.95;14.45;;;14.30;99.90;;;;;;5061060;28;20449;-74
2022/09/11 06:53:06;;;;;;;16.15;14.65;;;14.30;99.90;;;;;;5054359;28;20363;-73
2022/09/11 06:55:33;;;;;;;16.88;14.70;;;14.40;99.90;;;;;;5060006;28;20052;-73
2022/09/11 06:57:59;;;;;;;16.58;15.07;;;14.50;99.90;;;;;;5035838;28;20045;-73
2022/09/11 07:00:24;;;;;;;15.93;14.52;;;14.60;99.90;;;;;;5024963;28;20052;-73
2022/09/11 07:02:55;;;;;;;16.67;15.18;;;14.80;99.90;;;;;;5022555;28;20053;-73
2022/09/11 07:05:21;;;;;;;16.48;15.07;;;14.90;99.90;;;;;;5015402;28;20053;-72
2022/09/11 07:07:49;;;;;;;15.75;14.32;;;15.10;99.90;;;;;;5029882;28;20055;-73
2022/09/11 07:10:15;;;;;;;15.35;13.95;;;15.20;99.90;;;;;;5019926;28;20108;-71
2022/09/11 07:12:41;;;;;;;16.67;14.98;;;15.30;99.90;;;;;;5035305;28;20045;-73
2022/09/11 07:15:08;;;;;;;15.27;13.88;;;15.50;99.90;;;;;;5059007;28;20049;-73
2022/09/11 07:17:35;;;;;;;15.85;14.45;;;15.70;99.90;;;;;;5054481;28;20148;-72
2022/09/11 07:20:05;;;;;;;14.43;13.23;;;15.80;99.90;;;;;;5041394;28;20060;-72
2022/09/11 07:22:31;;;;;;;14.50;13.10;;;16.10;99.90;;;;;;5037230;28;20049;-74
2022/09/11 07:24:57;;;;;;;15.38;13.93;;;16.20;99.90;;;;;;5036522;28;20082;-74
2022/09/11 07:27:23;;;;;;;15.23;13.85;;;16.40;99.90;;;;;;5057601;28;20041;-73
2022/09/11 07:29:48;;;;;;;17.00;15.43;;;16.60;99.90;;;;;;5054159;28;20039;-72
2022/09/11 07:32:14;;;;;;;15.38;13.70;;;16.80;99.90;;;;;;5059070;28;20048;-74
2022/09/11 07:34:40;;;;;;;13.80;12.50;;;17.00;99.90;;;;;;5049113;28;20045;-73
2022/09/11 07:37:05;;;;;;;16.10;14.40;;;17.40;99.90;;;;;;5053415;28;20041;-79
2022/09/11 07:39:31;;;;;;;14.90;13.48;;;17.60;99.90;;;;;;5054407;28;20044;-74
2022/09/11 07:41:57;;;;;;;15.50;13.90;;;17.90;99.90;;;;;;5057775;28;20076;-78
2022/09/11 07:44:22;;;;;;;13.23;12.02;;;18.10;99.90;;;;;;5035246;28;20056;-76
2022/09/11 07:46:50;;;;;;;13.48;12.18;;;18.30;99.90;;;;;;5054170;28;20048;-78
2022/09/11 07:49:16;;;;;;;13.10;11.90;;;18.40;99.90;;;;;;5021514;28;20102;-77
2022/09/11 07:51:42;;;;;;;12.68;11.63;;;18.60;99.90;;;;;;5053304;28;20050;-78
2022/09/11 07:54:09;;;;;;;11.38;10.25;;;18.90;99.90;;;;;;5042598;28;20120;-76
2022/09/11 07:56:35;;;;;;;12.25;11.13;;;19.20;99.90;;;;;;5030154;28;20338;-78
2022/09/11 07:59:01;;;;;;;11.18;10.07;;;19.60;99.90;;;;;;5052818;28;21094;-77
2022/09/11 08:01:29;;;;;;;11.35;10.35;;;20.00;99.90;;;;;;5059138;28;20118;-77
2022/09/11 08:03:57;;;;;;;11.70;10.57;;;20.30;99.90;;;;;;5053505;28;20049;-66
2022/09/11 08:06:25;;;;;;;9.88;8.98;;;20.80;99.90;;;;;;5046337;28;20064;-65
2022/09/11 08:08:57;;;;;;;9.05;7.60;;;21.70;99.90;;;;;;5054621;28;20475;-67
2022/09/11 08:11:24;;;;;;;7.68;6.97;;;22.60;99.90;;;;;;5044925;28;20400;-68
2022/09/11 08:13:51;;;;;;;7.55;6.75;;;23.30;99.90;;;;;;5041698;28;20045;-68
2022/09/11 08:16:22;;;;;;;7.80;7.05;;;23.90;99.90;;;;;;5043372;28;20494;-67
2022/09/11 08:18:48;;;;;;;6.53;5.93;;;24.30;99.90;;;;;;5037551;28;20535;-66
2022/09/11 08:21:13;;;;;;;6.88;5.90;;;24.70;99.90;;;;;;5040241;28;20045;-67
2022/09/11 08:23:42;;;;;;;7.30;5.72;;;25.00;99.90;;;;;;5044108;28;20106;-68
2022/09/11 08:26:10;;;;;;;7.70;5.20;;;25.20;99.90;;;;;;5023581;28;20046;-66
2022/09/11 08:28:37;;;;;;;5.97;4.85;;;25.40;99.90;;;;;;5042747;28;20052;-68
2022/09/11 08:31:05;;;;;;;5.32;4.72;;;25.80;99.90;;;;;;5042165;28;20057;-68
2022/09/11 08:33:34;;;;;;;6.60;5.30;;;26.20;99.90;;;;;;5042096;28;20037;-68
2022/09/11 08:36:03;;;;;;;6.32;4.90;;;25.90;99.90;;;;;;5043623;28;20347;-67
2022/09/11 08:38:29;;;;;;;5.97;4.55;;;25.20;99.90;;;;;;5042810;28;20393;-67
2022/09/11 08:41:23;;;;;;;5.88;4.53;;;24.40;99.90;;;;;;5042980;28;20416;-67
2022/09/11 08:44:16;;;;;;;4.68;4.18;;;23.90;99.90;;;;;;5046113;28;20044;-67
2022/09/11 08:46:45;;;;;;;5.93;4.32;;;23.80;99.90;;;;;;5041029;28;20040;-66
2022/09/11 08:49:18;;;;;;;6.15;3.40;;;23.70;99.90;;;;;;5042013;28;20056;-66
2022/09/11 08:51:45;;;;;;;4.78;3.88;;;23.90;99.90;;;;;;5045564;28;20489;-68
2022/09/11 08:54:36;;;;;;;4.95;3.70;;;24.20;99.90;;;;;;5038062;28;20122;-67
2022/09/11 08:57:10;;;;;;;6.25;3.70;;;24.20;99.90;;;;;;5055024;28;20055;-72
2022/09/11 09:00:01;;;;;;;;;;;23.60;99.90;;;;;;5055677;28;20056;-71
2022/09/11 09:02:45;;;;;;;7.78;3.13;;;23.00;99.90;;;;;;5077128;28;19921;-71
2022/09/11 09:05:54;;;;;;;6.32;2.80;;;22.40;99.90;;;;;;5041738;28;20080;-70
2022/09/11 09:08:20;;;;;;;5.13;2.53;;;22.00;99.90;;;;;;5055479;28;20045;-71
2022/09/11 09:11:15;;;;;;;5.18;3.08;;;21.70;99.90;;;;;;5065588;28;20056;-71
2022/09/11 09:14:05;;;;;;;4.45;2.72;;;21.50;99.90;;;;;;5065621;28;20051;-71
2022/09/11 09:16:52;;;;;;;3.92;3.53;;;21.40;99.90;;;;;;5072760;28;20053;-71
2022/09/11 09:19:37;;;;;;;4.47;3.10;;;21.90;99.90;;;;;;5071416;28;20049;-72
2022/09/11 09:22:26;;;;;;;4.10;2.67;;;23.50;99.90;;;;;;5077843;28;20073;-72
2022/09/11 09:24:59;;;;;;;5.30;2.55;;;24.60;99.90;;;;;;5037061;28;20117;-72
2022/09/11 09:27:38;;;;;;;5.00;2.70;;;25.00;99.90;;;;;;5034732;28;20045;-71
2022/09/11 09:30:12;;;;;;;4.78;2.63;;;24.60;99.90;;;;;;5038372;28;20083;-72
2022/09/11 09:32:50;;;;;;;3.97;2.10;;;24.00;99.90;;;;;;5035104;28;20478;-70
2022/09/11 09:35:22;;;;;;;4.45;1.92;;;24.00;99.90;;;;;;5058014;28;20103;-72
2022/09/11 09:37:48;;;;;;;3.47;1.75;;;23.90;99.90;;;;;;5050956;28;20461;-72
2022/09/11 09:40:16;;;;;;;4.18;1.80;;;23.40;99.90;;;;;;5022948;28;20073;-72
2022/09/11 09:43:11;;;;;;;4.05;1.60;;;23.80;99.90;;;;;;5043854;28;20037;-72
2022/09/11 09:45:47;;;;;;;;;;;24.80;98.60;;;;;;5054635;28;20049;-72
2022/09/11 09:48:13;;;;;;;5.18;1.60;;;25.50;98.60;;;;;;5051089;28;20350;-72
2022/09/11 09:50:41;;;;;;;3.58;1.83;;;26.40;99.90;;;;;;5046359;28;20392;-72
2022/09/11 09:53:32;;;;;;;3.38;1.95;;;27.20;96.40;;;;;;5048543;28;20045;-72
2022/09/11 09:56:00;;;;;;;3.70;1.50;;;27.50;96.00;;;;;;5060966;28;20057;-72
2022/09/11 09:58:31;;;;;;;4.53;1.55;;;27.90;97.30;;;;;;5040154;28;20025;-73
2022/09/11 10:00:58;;;;;;;5.00;2.00;;;28.50;93.00;;;;;;5058029;28;20049;-73
2022/09/11 10:03:25;;;;;;;2.33;1.50;;;28.60;89.40;;;;;;5041208;28;21724;-73
2022/09/11 10:05:53;;;;;;;3.60;1.67;;;28.60;90.20;;;;;;5028642;28;20061;-73
2022/09/11 10:08:25;;;;;;;2.92;1.45;;;28.80;91.00;;;;;;5029668;28;20113;-71
2022/09/11 10:10:56;;;;;;;2.42;1.10;;;29.10;86.20;;;;;;5043920;28;20057;-73
2022/09/11 10:13:27;;;;;;;2.65;1.10;;;29.10;84.40;;;;;;5061770;28;20064;-73
2022/09/11 10:16:00;;;;;;;2.55;1.10;;;29.20;87.40;;;;;;5030785;28;20045;-72
2022/09/11 10:18:29;;;;;;;4.47;1.27;;;29.00;78.40;;;;;;5049864;28;20200;-72
2022/09/11 10:21:10;;;;;;;4.07;1.33;;;27.90;78.50;;;;;;5043422;28;20052;-72
2022/09/11 10:23:57;;;;;;;3.92;1.40;;;27.00;77.90;;;;;;5063904;28;20038;-72
2022/09/11 10:26:44;;;;;;;2.40;1.17;;;26.30;81.30;;;;;;5048679;28;20112;-72
2022/09/11 10:29:28;;;;;;;3.38;1.20;;;25.90;85.20;;;;;;5050581;28;20063;-71
2022/09/11 10:32:02;;;;;;;2.17;1.30;;;25.60;85.60;;;;;;5051259;28;20089;-72
2022/09/11 10:34:35;;;;;;;4.70;1.80;;;25.30;85.00;;;;;;5067024;28;20049;-72
2022/09/11 10:37:13;;;;;;;2.80;1.60;;;24.80;84.40;;;;;;5062977;28;20045;-72
2022/09/11 10:39:41;;;;;;;4.20;1.70;;;24.40;84.90;;;;;;5066396;28;20052;-72
2022/09/11 10:42:20;;;;;;;4.63;1.40;;;24.70;90.80;;;;;;5061516;28;20037;-72
2022/09/11 10:44:47;;;;;;;4.05;1.55;;;25.50;86.20;;;;;;5064258;28;20073;-72
2022/09/11 10:47:25;;;;;;;1.95;0.65;;;26.00;87.90;;;;;;5051708;28;20037;-72
2022/09/11 10:50:10;;;;;;;2.85;0.80;;;26.60;83.00;;;;;;5034000;28;20045;-72
2022/09/11 10:53:14;;;;;;;2.28;1.15;;;26.90;77.40;;;;;;5052030;28;20045;-72
2022/09/11 10:55:49;;;;;;;2.50;1.20;;;26.90;79.20;;;;;;5065492;28;20047;-72
2022/09/11 10:58:22;;;;;;;3.50;1.20;;;27.00;81.00;;;;;;5040104;28;20037;-72
2022/09/11 11:00:50;;;;;;;2.80;1.15;;;27.20;77.00;;;;;;5054346;28;20061;-72
2022/09/11 11:03:21;;;;;;;2.10;0.80;;;26.80;79.10;;;;;;5046762;28;20044;-72
2022/09/11 11:06:27;;;;;;;2.13;0.70;;;26.90;79.90;;;;;;5064207;28;20267;-71
2022/09/11 11:09:04;;;;;;;2.47;0.73;;;27.00;75.00;;;;;;5050896;28;20037;-72
2022/09/11 11:11:40;;;;;;;3.17;0.88;;;26.30;72.90;;;;;;5045366;28;20033;-72
2022/09/11 11:14:36;;;;;;;1.33;0.47;;;25.50;76.50;;;;;;5047087;28;20085;-71
2022/09/11 11:17:27;;;;;;;2.50;0.60;;;24.90;76.90;;;;;;5047322;28;20093;-72
2022/09/11 11:20:34;;;;;;;2.63;0.70;;;24.40;79.30;;;;;;5030281;28;20044;-71
2022/09/11 11:23:12;;;;;;;2.67;1.00;;;24.10;82.10;;;;;;5048277;28;20059;-72
2022/09/11 11:26:28;;;;;;;2.80;0.80;;;23.80;84.30;;;;;;5044906;28;20075;-72
2022/09/11 11:29:32;;;;;;;1.90;0.90;;;23.60;85.50;;;;;;4960016;28;20081;-72
2022/09/11 11:32:08;;;;;;;2.60;0.98;;;23.30;86.30;;;;;;4992354;28;20414;-72
2022/09/11 11:35:02;;;;;;;1.67;0.73;;;23.10;88.00;;;;;;5055017;28;20112;-71
2022/09/11 11:37:44;;;;;;;2.27;0.90;;;23.10;89.10;;;;;;5045524;28;20531;-72
2022/09/11 11:40:22;;;;;;;3.15;1.10;;;23.10;90.60;;;;;;5049910;28;20036;-71
2022/09/11 11:43:12;;;;;;;2.53;1.05;;;23.10;90.90;;;;;;5029544;28;20045;-72
2022/09/11 11:45:43;;;;;;;2.90;1.00;;;23.10;88.10;;;;;;5023511;28;20137;-71
2022/09/11 11:48:24;;;;;;;2.58;1.00;;;23.10;89.10;;;;;;5049333;28;20034;-71
2022/09/11 11:50:54;;;;;;;1.92;0.88;;;23.60;91.00;;;;;;5044024;28;20029;-72
2022/09/11 11:53:23;;;;;;;2.45;0.65;;;24.70;87.40;;;;;;5046735;28;20102;-71
2022/09/11 11:56:22;;;;;;;2.38;0.63;;;25.90;86.70;;;;;;5041006;28;20428;-72
2022/09/11 11:59:17;;;;;;;1.40;0.60;;;27.10;78.00;;;;;;5062372;28;20129;-72
2022/09/11 12:01:58;;;;;;;2.00;0.63;;;28.20;75.50;;;;;;5056443;28;20134;-72
2022/09/11 12:04:49;;;;;;;2.45;0.57;;;28.90;78.00;;;;;;5046873;28;20064;-72
2022/09/11 12:07:22;;;;;;;2.75;0.73;;;29.70;67.30;;;;;;5068406;28;20056;-72
2022/09/11 12:09:51;;;;;;;4.03;0.60;;;30.00;64.90;;;;;;5046840;28;20175;-72
2022/09/11 12:12:18;;;;;;;1.50;0.50;;;29.60;66.50;;;;;;5052168;28;20045;-71
2022/09/11 12:15:09;;;;;;;1.80;0.57;;;29.00;64.30;;;;;;5025096;28;20075;-72
2022/09/11 12:17:37;;;;;;;2.67;0.45;;;28.00;63.90;;;;;;5025733;28;20057;-71
2022/09/11 12:20:08;;;;;;;2.47;0.50;;;27.20;67.80;;;;;;5024273;28;20053;-72
2022/09/11 12:22:43;;;;;;;1.90;0.57;;;26.60;68.20;;;;;;5045468;28;20041;-71
2022/09/11 12:25:18;;;;;;;1.77;0.50;;;26.40;69.70;;;;;;5060046;28;20468;-72
2022/09/11 12:27:54;;;;;;;1.88;0.50;;;26.30;69.60;;;;;;5048336;28;20040;-72
2022/09/11 12:30:27;;;;;;;1.45;0.50;;;26.70;68.20;;;;;;5043947;28;20099;-71
2022/09/11 12:32:59;;;;;;;2.22;0.70;;;27.20;66.80;;;;;;5048462;28;20044;-72
2022/09/11 12:35:33;;;;;;;6.20;5.18;;;27.40;65.30;;;;;;5042706;28;20049;-72
2022/09/11 12:38:02;;;;;;;2.35;0.88;;;28.20;65.40;;;;;;5028809;28;20222;-72
2022/09/11 12:40:38;;;;;;;1.38;0.50;;;29.20;64.00;;;;;;5041374;28;20095;-72
2022/09/11 12:43:28;;;;;;;1.20;0.40;;;29.90;60.80;;;;;;5043323;28;20071;-72
2022/09/11 12:45:55;;;;;;;2.05;0.40;;;30.00;55.90;;;;;;5041039;28;20512;-72
2022/09/11 12:48:37;;;;;;;1.77;0.30;;;29.10;60.50;;;;;;5047385;28;20392;-72
2022/09/11 12:51:05;;;;;;;1.48;0.40;;;28.70;58.80;;;;;;5072732;28;20032;-71
2022/09/11 12:53:34;;;;;;;3.38;0.40;;;27.80;63.70;;;;;;5050808;28;20550;-72
2022/09/11 12:56:05;;;;;;;5.63;3.30;;;27.00;64.60;;;;;;5043965;28;20037;-72
2022/09/11 12:58:43;;;;;;;2.33;0.70;;;26.40;65.20;;;;;;5043383;28;20044;-71
2022/09/11 13:01:09;;;;;;;2.03;0.55;;;25.90;65.00;;;;;;5042184;28;20053;-72
2022/09/11 13:03:37;;;;;;;26.08;23.35;;;25.50;68.60;;;;;;5040908;28;20505;-72